Terminal Aerodrome Forecast
Issued by NWS

Home | Current Version | Previous Version | Text Only | Print | Product List | Glossary On
Versions: 1 2 3 4 5 6 7 8 9 10 11 12 13 14 15 16
000
FTUS44 KCRP 042329
TAFALI
TAF
KALI 042329Z 0500/0524 14015G22KT P6SM VCSH SCT035 BKN180
     FM050200 14007KT P6SM FEW019
     FM051100 VRB03KT 5SM BR FEW015
      TEMPO 0511/0513 1SM BR BKN015
     FM051400 15011KT P6SM SCT025 BKN250
     FM052000 14015G21KT P6SM SCT050=

USA.gov is the U.S. government's official web portal to all federal, state and local government web resources and services.